Robin B Ingram — WDB9002 — position and weather

sailwx.info

Track history (hours):
 
Tides and Currents Weather Stations Pressure Air Temp Water Temp Dewpoint Dewpoint Depression Visibility Wind Speed Wind Dir Waves Ship Positions

Robin B Ingram

Owner: Ingram Barge Company LLC, Nashville, TN. More information available from US FCC via Universal Licensing System and Coast Guard Vessel Documentation Center.

Last reported at 2018-May-03 23:05 UTC. Time now 2018-Jul-19 13:24 UTC.
Position N 39°09' W 090°43'.
Warning: this ship's position is months out of date.

Length 39 m; draft 3 m.

Type: Towing. MMSI: 366967670.

Date/timePositionNaut miles runAvg speedWind from/ knotsBaromVisibWave heightAir tempDewpointWater temp
2018-May-03 23:05N 39°09' W 090°43'0 4.2
2018-May-03 23:01N 39°09' W 090°43'2 4.4
2018-May-03 22:31N 39°07' W 090°41'0 0.6
2018-May-03 22:01N 39°07' W 090°41'3 3.0
2018-May-03 20:59N 39°04' W 090°43'2 3.3
2018-May-03 20:31N 39°02' W 090°42'2 3.8
2018-May-03 20:00N 39°00' W 090°41'0 0.5
2018-May-03 19:30N 39°00' W 090°41'0 0.2
2018-May-03 19:01N 39°00' W 090°41'0 0.4
2018-May-03 18:31N 38°60' W 090°41'2 4.1
2018-May-03 18:00N 38°58' W 090°40'0 0.9
2018-May-03 17:30N 38°57' W 090°40'0 0.0
2018-May-03 16:50N 38°57' W 090°40'0 0.0
2018-May-03 16:29N 38°57' W 090°40'0 0.0
2018-May-03 15:58N 38°57' W 090°40'0 0.0
2018-May-03 15:25N 38°57' W 090°40'0 0.0
2018-May-03 14:58N 38°57' W 090°40'0 0.0
2018-May-03 14:28N 38°57' W 090°40'0 0.0
2018-May-03 13:59N 38°57' W 090°40'0 0.0
2018-May-03 13:28N 38°57' W 090°40'0 0.0
2018-May-03 13:00N 38°57' W 090°40'2 3.9
2018-May-03 12:31N 38°56' W 090°40'2 4.4
2018-May-03 12:00N 38°54' W 090°38'2 4.4
2018-May-03 11:31N 38°52' W 090°36'2 4.5
2018-May-03 11:00N 38°52' W 090°33'2 4.2
2018-May-03 10:30N 38°54' W 090°31'2 4.3
2018-May-03 10:00N 38°56' W 090°30'2 4.0
2018-May-03 09:31N 38°57' W 090°28'2 4.0
2018-May-03 09:01N 38°58' W 090°26'2 4.0
2018-May-03 08:30N 38°58' W 090°23'2 4.2
2018-May-03 08:00N 38°57' W 090°21'2 4.3
2018-May-03 07:31N 38°55' W 090°19'2 4.1
2018-May-03 07:00N 38°55' W 090°16'2 4.0
2018-May-03 06:31N 38°55' W 090°14'2 4.1
2018-May-03 06:01N 38°53' W 090°12'2 3.7
2018-May-03 05:31N 38°52' W 090°10'1 1.3
2018-May-03 05:01N 38°52' W 090°09'1 2.9
2018-May-03 04:30N 38°51' W 090°07'1 3.0
2018-May-03 04:01N 38°50' W 090°07'2 3.7
2018-May-03 03:30N 38°48' W 090°07'4 1.7
2018-May-03 01:09N 38°44' W 090°09'2 4.4
2018-May-03 00:38N 38°42' W 090°11'0 3.1
2018-May-03 00:30N 38°42' W 090°11'1 1.2
2018-May-02 23:58N 38°41' W 090°11'3 1.2
2018-May-02 21:16N 38°38' W 090°11'1 3.8
2018-May-02 21:00N 38°37' W 090°11'6 4.6
2018-May-02 19:48N 38°33' W 090°15'0 0.5
2018-May-02 19:26N 38°32' W 090°15'0 0.1
2018-May-02 19:00N 38°32' W 090°15'0 0.0
2018-May-02 18:27N 38°32' W 090°15'0 0.0
2018-May-02 17:59N 38°32' W 090°15'0 0.0
2018-May-02 17:26N 38°32' W 090°15'0 0.0
2018-May-02 16:20N 38°32' W 090°15'0 0.0
2018-May-02 15:57N 38°32' W 090°15'0 0.0
2018-May-02 15:22N 38°32' W 090°15'0 0.0
2018-May-02 14:52N 38°32' W 090°15'0 0.0
2018-May-02 14:30N 38°32' W 090°15'0 0.0
2018-May-02 14:01N 38°32' W 090°15'0 0.1
2018-May-02 13:30N 38°32' W 090°15'0 0.3
2018-May-02 13:00N 38°32' W 090°15'0 0.0
2018-May-02 12:30N 38°32' W 090°15'0 0.0
2018-May-02 12:00N 38°32' W 090°15'5 1.9
2018-May-02 09:28N 38°36' W 090°11'4 9.5
2018-May-02 09:01N 38°41' W 090°11'8 3.7
2018-May-02 06:54N 38°48' W 090°07'3 7.4
2018-May-02 06:31N 38°51' W 090°06'3 5.3
2018-May-02 06:01N 38°52' W 090°09'1 1.2
2018-May-02 05:30N 38°53' W 090°10'3 6.9
2018-May-02 05:01N 38°55' W 090°13'0 0.5
2018-May-02 04:30N 38°55' W 090°13'0 0.0
2018-May-02 04:00N 38°55' W 090°13'0 0.0
2018-May-02 03:31N 38°55' W 090°13'0 0.0
2018-May-02 03:01N 38°55' W 090°13'2 3.2
2018-May-02 02:30N 38°55' W 090°15'3 6.3
2018-May-02 02:01N 38°56' W 090°19'4 6.8
2018-May-02 01:29N 38°58' W 090°23'3 7.0
2018-May-02 01:00N 38°57' W 090°28'3 6.9
2018-May-02 00:30N 38°55' W 090°31'3 6.9
2018-May-02 00:01N 38°52' W 090°33'3 6.7
2018-May-01 23:31N 38°53' W 090°38'4 7.3
2018-May-01 23:00N 38°56' W 090°40'4 7.5
2018-May-01 22:30N 38°60' W 090°41'0 0.7
2018-May-01 22:01N 39°00' W 090°41'0 0.2
2018-May-01 21:31N 39°00' W 090°41'0 0.1
2018-May-01 21:01N 39°00' W 090°41'1 2.0
2018-May-01 20:30N 39°01' W 090°42'2 3.5
2018-May-01 20:01N 39°03' W 090°43'0 0.0
2018-May-01 19:31N 39°03' W 090°43'0 0.0
2018-May-01 19:00N 39°03' W 090°43'0 0.0
2018-May-01 18:31N 39°03' W 090°43'0 0.0
2018-May-01 18:01N 39°03' W 090°43'0 0.0
2018-May-01 17:31N 39°03' W 090°43'0 0.0
2018-May-01 17:00N 39°03' W 090°43'0 0.0
2018-May-01 16:31N 39°03' W 090°43'0 0.0
2018-May-01 16:00N 39°03' W 090°43'2 3.0
2018-May-01 15:30N 39°04' W 090°42'1 0.4
2018-May-01 13:29N 39°05' W 090°41'4 6.5
2018-May-01 12:55N 39°08' W 090°42'  
Track history (hours):
 
Tides and Currents Weather Stations Pressure Air Temp Water Temp Dewpoint Dewpoint Depression Visibility Wind Speed Wind Dir Waves Ship Positions

Robin B Ingram

Owner: Ingram Barge Company LLC, Nashville, TN. More information available from US FCC via Universal Licensing System and Coast Guard Vessel Documentation Center.

Last reported at 2018-May-03 23:05 UTC. Time now 2018-Jul-19 13:24 UTC.
Position N 39°09' W 090°43'.
Warning: this ship's position is months out of date.

Length 39 m; draft 3 m.

Type: Towing. MMSI: 366967670.

Date/timePositionNaut miles runAvg speedWind from/ knotsBaromVisibWave heightAir tempDewpointWater temp
2018-May-03 23:05N 39°09' W 090°43'0 4.2
2018-May-03 23:01N 39°09' W 090°43'2 4.4
2018-May-03 22:31N 39°07' W 090°41'0 0.6
2018-May-03 22:01N 39°07' W 090°41'3 3.0
2018-May-03 20:59N 39°04' W 090°43'2 3.3
2018-May-03 20:31N 39°02' W 090°42'2 3.8
2018-May-03 20:00N 39°00' W 090°41'0 0.5
2018-May-03 19:30N 39°00' W 090°41'0 0.2
2018-May-03 19:01N 39°00' W 090°41'0 0.4
2018-May-03 18:31N 38°60' W 090°41'2 4.1
2018-May-03 18:00N 38°58' W 090°40'0 0.9
2018-May-03 17:30N 38°57' W 090°40'0 0.0
2018-May-03 16:50N 38°57' W 090°40'0 0.0
2018-May-03 16:29N 38°57' W 090°40'0 0.0
2018-May-03 15:58N 38°57' W 090°40'0 0.0
2018-May-03 15:25N 38°57' W 090°40'0 0.0
2018-May-03 14:58N 38°57' W 090°40'0 0.0
2018-May-03 14:28N 38°57' W 090°40'0 0.0
2018-May-03 13:59N 38°57' W 090°40'0 0.0
2018-May-03 13:28N 38°57' W 090°40'0 0.0
2018-May-03 13:00N 38°57' W 090°40'2 3.9
2018-May-03 12:31N 38°56' W 090°40'2 4.4
2018-May-03 12:00N 38°54' W 090°38'2 4.4
2018-May-03 11:31N 38°52' W 090°36'2 4.5
2018-May-03 11:00N 38°52' W 090°33'2 4.2
2018-May-03 10:30N 38°54' W 090°31'2 4.3
2018-May-03 10:00N 38°56' W 090°30'2 4.0
2018-May-03 09:31N 38°57' W 090°28'2 4.0
2018-May-03 09:01N 38°58' W 090°26'2 4.0
2018-May-03 08:30N 38°58' W 090°23'2 4.2
2018-May-03 08:00N 38°57' W 090°21'2 4.3
2018-May-03 07:31N 38°55' W 090°19'2 4.1
2018-May-03 07:00N 38°55' W 090°16'2 4.0
2018-May-03 06:31N 38°55' W 090°14'2 4.1
2018-May-03 06:01N 38°53' W 090°12'2 3.7
2018-May-03 05:31N 38°52' W 090°10'1 1.3
2018-May-03 05:01N 38°52' W 090°09'1 2.9
2018-May-03 04:30N 38°51' W 090°07'1 3.0
2018-May-03 04:01N 38°50' W 090°07'2 3.7
2018-May-03 03:30N 38°48' W 090°07'4 1.7
2018-May-03 01:09N 38°44' W 090°09'2 4.4
2018-May-03 00:38N 38°42' W 090°11'0 3.1
2018-May-03 00:30N 38°42' W 090°11'1 1.2
2018-May-02 23:58N 38°41' W 090°11'3 1.2
2018-May-02 21:16N 38°38' W 090°11'1 3.8
2018-May-02 21:00N 38°37' W 090°11'6 4.6
2018-May-02 19:48N 38°33' W 090°15'0 0.5
2018-May-02 19:26N 38°32' W 090°15'0 0.1
2018-May-02 19:00N 38°32' W 090°15'0 0.0
2018-May-02 18:27N 38°32' W 090°15'0 0.0
2018-May-02 17:59N 38°32' W 090°15'0 0.0
2018-May-02 17:26N 38°32' W 090°15'0 0.0
2018-May-02 16:20N 38°32' W 090°15'0 0.0
2018-May-02 15:57N 38°32' W 090°15'0 0.0
2018-May-02 15:22N 38°32' W 090°15'0 0.0
2018-May-02 14:52N 38°32' W 090°15'0 0.0
2018-May-02 14:30N 38°32' W 090°15'0 0.0
2018-May-02 14:01N 38°32' W 090°15'0 0.1
2018-May-02 13:30N 38°32' W 090°15'0 0.3
2018-May-02 13:00N 38°32' W 090°15'0 0.0
2018-May-02 12:30N 38°32' W 090°15'0 0.0
2018-May-02 12:00N 38°32' W 090°15'5 1.9
2018-May-02 09:28N 38°36' W 090°11'4 9.5
2018-May-02 09:01N 38°41' W 090°11'8 3.7
2018-May-02 06:54N 38°48' W 090°07'3 7.4
2018-May-02 06:31N 38°51' W 090°06'3 5.3
2018-May-02 06:01N 38°52' W 090°09'1 1.2
2018-May-02 05:30N 38°53' W 090°10'3 6.9
2018-May-02 05:01N 38°55' W 090°13'0 0.5
2018-May-02 04:30N 38°55' W 090°13'0 0.0
2018-May-02 04:00N 38°55' W 090°13'0 0.0
2018-May-02 03:31N 38°55' W 090°13'0 0.0
2018-May-02 03:01N 38°55' W 090°13'2 3.2
2018-May-02 02:30N 38°55' W 090°15'3 6.3
2018-May-02 02:01N 38°56' W 090°19'4 6.8
2018-May-02 01:29N 38°58' W 090°23'3 7.0
2018-May-02 01:00N 38°57' W 090°28'3 6.9
2018-May-02 00:30N 38°55' W 090°31'3 6.9
2018-May-02 00:01N 38°52' W 090°33'3 6.7
2018-May-01 23:31N 38°53' W 090°38'4 7.3
2018-May-01 23:00N 38°56' W 090°40'4 7.5
2018-May-01 22:30N 38°60' W 090°41'0 0.7
2018-May-01 22:01N 39°00' W 090°41'0 0.2
2018-May-01 21:31N 39°00' W 090°41'0 0.1
2018-May-01 21:01N 39°00' W 090°41'1 2.0
2018-May-01 20:30N 39°01' W 090°42'2 3.5
2018-May-01 20:01N 39°03' W 090°43'0 0.0
2018-May-01 19:31N 39°03' W 090°43'0 0.0
2018-May-01 19:00N 39°03' W 090°43'0 0.0
2018-May-01 18:31N 39°03' W 090°43'0 0.0
2018-May-01 18:01N 39°03' W 090°43'0 0.0
2018-May-01 17:31N 39°03' W 090°43'0 0.0
2018-May-01 17:00N 39°03' W 090°43'0 0.0
2018-May-01 16:31N 39°03' W 090°43'0 0.0
2018-May-01 16:00N 39°03' W 090°43'2 3.0
2018-May-01 15:30N 39°04' W 090°42'1 0.4
2018-May-01 13:29N 39°05' W 090°41'4 6.5
2018-May-01 12:55N 39°08' W 090°42'  

Dump ship's entire track history